Station: White Cliffs Aws  

  Atmospheric Gas Attenuation - ITU Rec 676-11   ----------------- dB/100km -----------------
Date Time Temp RH % AH g/m3 Dew Point Wind Direction Speed kph Gust kph Barometer mB Rainfall Since 9am 24GHz 47GHz 76GHz 122GHz 134GHz 241GHz
08/05 12:30 16.5 52 7.3 6.6 19 28 1028.1 0 16.7 23.7 34.2 89.2 79.9 273.9
08/05 12:20 16.5 54 7.58 7.2 17 20 1028.3 0 17.3 24.1 35.2 92.0 83.4 286.0
08/05 12:10 16.6 54 7.63 7.3 20 24 1028.4 0 17.4 24.2 35.4 92.4 83.9 287.9
08/05 12:00 16 56 7.63 7.2 19 28 1028.4 0 17.4 24.3 35.6 93.1 84.5 290.0
08/05 11:50 15.4 56 7.36 6.7 20 22 1028.7 0 16.9 24.1 34.9 91.1 81.8 280.4
08/05 11:40 16.2 55 7.58 7.2 20 26 1028.9 0 17.3 24.2 35.4 92.4 83.7 287.2
08/05 11:30 15.3 57 7.44 6.8 20 30 1028.9 0 17.0 24.2 35.2 92.1 82.9 284.3
08/05 11:20 15.2 57 7.4 6.7 22 24 1029.1 0 17.0 24.2 35.1 91.8 82.5 283.0
08/05 11:10 14.8 58 7.35 6.6 22 24 1029.2 0 16.9 24.2 35.1 91.7 82.3 282.2
08/05 11:00 14.6 58 7.26 6.4 19 28 1029.3 0 16.7 24.1 34.9 91.1 81.4 279.0
08/05 10:50 14.5 58 7.21 6.3 22 26 1029.4 0 16.6 24.1 34.7 90.7 80.9 277.1
08/05 10:40 14.5 59 7.34 6.6 20 26 1029.5 0 16.9 24.3 35.2 92.0 82.6 282.9
08/05 10:30 14.1 60 7.28 6.5 19 24 1029.4 0 16.8 24.3 35.2 91.9 82.2 281.6
08/05 10:20 13.8 61 7.27 6.4 20 24 1029.6 0 16.7 24.4 35.3 92.1 82.4 282.3
08/05 10:10 13.4 62 7.21 6.3 17 19 1029.7 0 16.6 24.4 35.2 92.0 82.1 281.0
08/05 10:00 12.9 62 6.99 5.8 19 24 1029.6 0 16.2 24.2 34.6 90.3 79.8 272.9
08/05 09:50 12.7 63 7.01 5.8 19 20 1029.7 0 16.2 24.3 34.7 90.7 80.2 274.5
08/05 09:40 12.5 63 6.93 5.7 15 15 1029.8 0 16.1 24.2 34.5 90.1 79.4 271.6
08/05 09:30 12 64 6.82 5.4 19 24 1029.7 0 15.9 24.2 34.3 89.5 78.5 268.4
08/05 09:20 11.5 65 6.71 5.2 22 26 1029.8 0 15.7 24.1 34.1 89.0 77.6 265.1
08/05 09:10 11.4 66 6.78 5.3 24 28 1029.6 0 15.8 24.3 34.4 89.8 78.6 268.6
08/05 09:00 11 66 6.61 4.9 20 28 1029.4 0 15.5 24.1 33.9 88.4 76.8 262.2
08/05 08:50 10.8 68 6.72 5.1 20 28 1029.5 0 15.7 24.3 34.4 89.8 78.4 267.9
08/05 08:40 10.2 70 6.66 5 13 17 1029.5 0 15.6 24.4 34.4 89.9 78.2 267.2
08/05 08:30 9.4 71 6.42 4.4 9 13 1029.3 0 15.1 24.2 33.8 88.2 75.9 258.8
08/05 08:20 9 73 6.44 4.4 7 9 1029.3 0 15.2 24.4 34.1 88.9 76.5 261.0
08/05 08:10 8.5 73 6.24 3.9 9 11 1029 0 14.8 24.2 33.5 87.3 74.4 253.4
08/05 08:00 8.1 74 6.16 3.8 9 11 1028.8 0 14.6 24.1 33.3 86.8 73.7 250.9
08/05 07:50 7.4 77 6.13 3.6 7 9 1028.8 0 14.6 24.3 33.5 87.3 74.0 251.8
08/05 07:40 7 77 5.97 3.3 9 9 1028.7 0 14.2 24.1 33.0 86.0 72.2 245.6
08/05 07:30 6.7 78 5.93 3.1 7 11 1028.5 0 14.2 24.1 33.0 85.9 71.9 244.6
08/05 07:20 6.3 79 5.85 2.9 9 9 1028.5 0 14.0 24.1 32.8 85.5 71.2 242.1
08/05 07:10 5.8 80 5.73 2.6 11 11 1028.4 0 13.8 24.0 32.5 84.7 70.1 238.0
08/05 07:00 5.7 80 5.7 2.5 9 11 1028.2 0 13.7 24.0 32.4 84.5 69.8 236.9
08/05 06:50 5.7 79 5.63 2.4 9 11 1028.1 0 13.6 23.9 32.2 83.7 68.8 233.6
08/05 06:40 5.9 79 5.7 2.5 11 11 1028.1 0 13.7 24.0 32.4 84.2 69.6 236.3
08/05 06:30 6 79 5.74 2.6 9 11 1028 0 13.8 24.0 32.5 84.6 70.0 237.8
08/05 06:20 5.7 78 5.55 2.2 7 9 1028.1 0 13.4 23.8 31.8 82.9 67.8 229.9
08/05 06:10 5.8 75 5.38 1.7 7 7 1028.1 0 13.0 23.5 31.1 80.9 65.5 221.7
08/05 06:00 6 74 5.37 1.7 7 9 1028 0 13.0 23.4 31.0 80.6 65.2 220.7
08/05 05:50 6.1 73 5.34 1.6 7 9 1028.2 0 12.9 23.3 30.8 80.2 64.7 219.1
08/05 05:40 6.2 72 5.3 1.5 11 11 1028.2 0 12.8 23.2 30.7 79.7 64.1 217.0
08/05 05:30 6.5 70 5.25 1.4 13 17 1028.1 0 12.7 23.1 30.3 78.9 63.2 213.9
08/05 05:20 6.6 70 5.29 1.5 15 15 1028.3 0 12.8 23.1 30.5 79.2 63.6 215.5
08/05 05:10 6.2 72 5.3 1.5 13 13 1028.3 0 12.8 23.2 30.7 79.7 64.1 217.0
08/05 05:00 6 72 5.23 1.3 13 13 1028.2 0 12.7 23.2 30.5 79.2 63.3 214.3
08/05 04:50 6 72 5.23 1.3 11 13 1028.3 0 12.7 23.2 30.5 79.2 63.4 214.4
08/05 04:40 6.2 71 5.22 1.3 11 11 1028.2 0 12.7 23.1 30.3 78.9 63.1 213.4
08/05 04:30 6.3 70 5.18 1.2 13 13 1028.1 0 12.6 23.0 30.1 78.3 62.5 211.2
08/05 04:20 5.8 73 5.23 1.3 13 13 1028.1 0 12.7 23.2 30.5 79.4 63.5 214.9
08/05 04:10 6.1 71 5.19 1.2 11 11 1028.1 0 12.6 23.1 30.3 78.6 62.7 212.2
08/05 04:00 6.4 69 5.14 1.1 15 15 1027.9 0 12.5 22.9 29.9 77.8 61.8 209.1
08/05 03:50 6.3 70 5.18 1.2 15 15 1028 0 12.6 23.0 30.1 78.3 62.4 211.2
08/05 03:40 6.3 70 5.18 1.2 13 15 1028 0 12.6 23.0 30.1 78.3 62.4 211.2
08/05 03:30 6.1 71 5.19 1.2 13 13 1028 0 12.6 23.1 30.3 78.6 62.7 212.2
08/05 03:20 6.1 72 5.26 1.4 13 13 1028 0 12.8 23.2 30.5 79.4 63.6 215.4
08/05 03:10 6.1 71 5.19 1.2 11 11 1028 0 12.6 23.1 30.3 78.6 62.7 212.2
08/05 03:00 6.3 71 5.26 1.4 13 13 1027.9 0 12.8 23.1 30.4 79.1 63.5 214.8
08/05 02:50 6.3 71 5.26 1.4 11 13 1027.9 0 12.8 23.1 30.4 79.1 63.5 214.8
08/05 02:40 6.3 71 5.26 1.4 11 13 1027.9 0 12.8 23.1 30.4 79.1 63.5 214.8
08/05 02:30 6.3 70 5.18 1.2 13 13 1028 0 12.6 23.0 30.1 78.3 62.4 211.2
08/05 02:20 6.6 69 5.21 1.3 13 13 1028 0 12.6 23.0 30.1 78.3 62.6 211.8
08/05 02:10 6.5 70 5.25 1.4 13 13 1028.2 0 12.7 23.1 30.3 78.9 63.2 213.9
08/05 02:00 6.4 70 5.22 1.3 11 11 1028.1 0 12.7 23.1 30.3 78.6 62.9 212.8
08/05 01:50 6.5 70 5.25 1.4 11 11 1028.2 0 12.7 23.1 30.3 78.9 63.2 213.9
08/05 01:40 6.6 71 5.36 1.7 11 11 1028.3 0 13.0 23.2 30.7 79.9 64.6 218.6
08/05 01:30 6.7 70 5.32 1.6 9 11 1028.2 0 12.9 23.1 30.5 79.4 63.9 216.5
08/05 01:20 6.9 68 5.24 1.4 9 9 1028.3 0 12.7 23.0 30.2 78.4 62.8 212.4
08/05 01:10 6.8 69 5.28 1.5 9 9 1028.4 0 12.8 23.1 30.4 78.9 63.4 214.5
08/05 01:00 6.7 69 5.25 1.4 9 9 1028.2 0 12.7 23.0 30.3 78.7 63.0 213.4
08/05 00:50 6.9 68 5.24 1.4 9 9 1028.3 0 12.7 23.0 30.2 78.4 62.8 212.4
08/05 00:40 6.9 68 5.24 1.4 11 11 1028.4 0 12.7 23.0 30.2 78.4 62.8 212.4
08/05 00:20 7 67 5.19 1.3 7 9 1028.6 0 12.6 22.9 29.9 77.8 62.1 209.9
08/05 00:10 7.1 66 5.15 1.2 7 7 1028.5 0 12.5 22.8 29.7 77.3 61.5 207.9
08/05 00:00 7.4 65 5.17 1.3 9 11 1028.4 0 12.5 22.7 29.7 77.2 61.5 208.0
07/05 23:50 7.6 62 5 0.8 11 13 1028.6 0 12.2 22.4 29.0 75.3 59.2 199.9
07/05 23:40 7.7 62 5.03 0.9 13 13 1028.6 0 12.2 22.5 29.1 75.5 59.5 201.0
07/05 23:30 7.7 62 5.03 0.9 11 11 1028.6 0 12.2 22.5 29.1 75.5 59.5 201.0
07/05 23:20 7.7 61 4.95 0.7 11 11 1028.7 0 12.0 22.3 28.8 74.7 58.5 197.5
07/05 23:10 7.7 61 4.95 0.7 9 9 1028.8 0 12.0 22.3 28.8 74.7 58.5 197.5
07/05 23:00 7.7 62 5.03 0.9 11 11 1028.7 0 12.2 22.5 29.1 75.5 59.5 201.0
07/05 22:50 7.8 61 4.98 0.8 11 13 1028.8 0 12.1 22.4 28.9 74.9 58.8 198.6
07/05 22:40 8 59 4.88 0.5 11 11 1028.8 0 11.9 22.2 28.4 73.7 57.4 193.7
07/05 22:30 8.1 58 4.83 0.3 13 15 1028.7 0 11.8 22.1 28.2 73.1 56.7 191.3
07/05 22:20 8.5 56 4.78 0.2 13 13 1028.8 0 11.7 21.9 27.9 72.2 55.8 188.2
07/05 22:10 8.8 55 4.79 0.3 13 15 1028.7 0 11.7 21.8 27.8 72.1 55.7 187.9
07/05 22:00 8.7 55 4.76 0.2 13 15 1028.6 0 11.6 21.8 27.7 71.8 55.4 186.8
07/05 21:50 8.7 56 4.84 0.4 13 13 1028.7 0 11.8 21.9 28.0 72.6 56.4 190.3
07/05 21:40 8.9 54 4.73 0.1 13 13 1028.7 0 11.5 21.7 27.5 71.4 54.9 185.1
07/05 21:30 9.1 54 4.79 0.3 15 17 1028.6 0 11.7 21.8 27.7 71.8 55.5 187.2
07/05 21:20 9.1 54 4.79 0.3 13 15 1028.7 0 11.7 21.8 27.7 71.8 55.5 187.2
07/05 21:10 9.2 54 4.82 0.4 13 15 1028.7 0 11.7 21.8 27.8 72.0 55.8 188.2
07/05 21:00 8.9 56 4.91 0.6 11 13 1028.5 0 11.9 22.0 28.2 73.1 57.1 192.8
07/05 20:50 9.4 53 4.79 0.3 11 13 1028.5 0 11.6 21.7 27.6 71.5 55.3 186.5
07/05 20:40 9.7 51 4.7 0.1 11 13 1028.4 0 11.4 21.5 27.1 70.3 54.0 181.9
07/05 20:30 9.7 51 4.7 0.1 13 15 1028.3 0 11.4 21.5 27.1 70.3 54.0 181.9
07/05 20:20 9.7 52 4.8 0.3 13 15 1028.3 0 11.7 21.6 27.5 71.3 55.2 186.2
07/05 20:10 9.9 51 4.76 0.3 13 13 1028.3 0 11.6 21.5 27.3 70.7 54.6 184.0
07/05 20:00 10 50 4.7 0.1 11 13 1028.2 0 11.4 21.4 27.0 70.1 53.8 181.2
07/05 19:50 10.2 50 4.76 0.3 11 13 1028.2 0 11.6 21.4 27.2 70.5 54.4 183.3

Last Refresh: 08-May-2026 12:08:49

Bureau of Meteorology